sensor_id;sensor_type;location;lat;lon;timestamp;pressure;altitude;pressure_sealevel;temperature;humidity
59329;BME280;45100;46.926;7.452;2023-05-03T00:01:35;95783.03;;;10.18;83.96
59329;BME280;45100;46.926;7.452;2023-05-03T00:04:05;95779.89;;;10.13;84.01
59329;BME280;45100;46.926;7.452;2023-05-03T00:06:35;95775.59;;;10.08;84.23
59329;BME280;45100;46.926;7.452;2023-05-03T00:09:06;95773.52;;;10.05;84.29
59329;BME280;45100;46.926;7.452;2023-05-03T00:14:10;95770.53;;;9.98;84.86
59329;BME280;45100;46.926;7.452;2023-05-03T00:16:41;95776.08;;;9.95;85.19
59329;BME280;45100;46.926;7.452;2023-05-03T00:19:12;95773.07;;;9.93;85.28
59329;BME280;45100;46.926;7.452;2023-05-03T00:21:43;95769.39;;;9.89;85.38
59329;BME280;45100;46.926;7.452;2023-05-03T00:24:13;95768.09;;;9.86;85.41
59329;BME280;45100;46.926;7.452;2023-05-03T00:26:44;95768.75;;;9.82;85.21
59329;BME280;45100;46.926;7.452;2023-05-03T00:29:16;95770.48;;;9.78;85.46
59329;BME280;45100;46.926;7.452;2023-05-03T00:31:45;95770.92;;;9.73;85.55
59329;BME280;45100;46.926;7.452;2023-05-03T00:34:16;95768.71;;;9.67;85.71
59329;BME280;45100;46.926;7.452;2023-05-03T00:36:46;95764.27;;;9.62;85.91
59329;BME280;45100;46.926;7.452;2023-05-03T00:39:17;95767.03;;;9.58;86.12
59329;BME280;45100;46.926;7.452;2023-05-03T00:41:47;95764.31;;;9.55;86.25
59329;BME280;45100;46.926;7.452;2023-05-03T00:44:18;95759.45;;;9.50;86.45
59329;BME280;45100;46.926;7.452;2023-05-03T00:46:49;95756.66;;;9.45;86.70
59329;BME280;45100;46.926;7.452;2023-05-03T00:49:20;95759.48;;;9.39;86.97
59329;BME280;45100;46.926;7.452;2023-05-03T00:51:53;95759.66;;;9.36;87.42
59329;BME280;45100;46.926;7.452;2023-05-03T00:54:22;95756.81;;;9.33;87.95
59329;BME280;45100;46.926;7.452;2023-05-03T00:56:52;95756.71;;;9.32;88.16
59329;BME280;45100;46.926;7.452;2023-05-03T00:59:23;95758.06;;;9.31;88.46
59329;BME280;45100;46.926;7.452;2023-05-03T01:01:53;95754.97;;;9.26;87.87
59329;BME280;45100;46.926;7.452;2023-05-03T01:04:24;95757.50;;;9.22;87.71
59329;BME280;45100;46.926;7.452;2023-05-03T01:07:02;95762.19;;;9.16;87.52
59329;BME280;45100;46.926;7.452;2023-05-03T01:09:45;95761.38;;;9.10;87.46
59329;BME280;45100;46.926;7.452;2023-05-03T01:12:19;95761.24;;;9.03;87.82
59329;BME280;45100;46.926;7.452;2023-05-03T01:14:31;95754.86;;;8.96;87.99
59329;BME280;45100;46.926;7.452;2023-05-03T01:17:01;95753.52;;;8.88;88.22
59329;BME280;45100;46.926;7.452;2023-05-03T01:19:35;95753.25;;;8.80;88.49
59329;BME280;45100;46.926;7.452;2023-05-03T01:24:31;95749.78;;;8.58;88.84
59329;BME280;45100;46.926;7.452;2023-05-03T01:26:59;95751.95;;;8.47;89.78
59329;BME280;45100;46.926;7.452;2023-05-03T01:29:29;95751.75;;;8.36;89.84
59329;BME280;45100;46.926;7.452;2023-05-03T01:32:02;95754.50;;;8.27;90.57
59329;BME280;45100;46.926;7.452;2023-05-03T01:34:48;95750.66;;;8.21;91.11
59329;BME280;45100;46.926;7.452;2023-05-03T01:37:03;95753.83;;;8.19;91.71
59329;BME280;45100;46.926;7.452;2023-05-03T01:39:47;95757.72;;;8.14;91.60
59329;BME280;45100;46.926;7.452;2023-05-03T01:44:36;95752.87;;;8.06;91.91
59329;BME280;45100;46.926;7.452;2023-05-03T01:47:06;95750.89;;;8.01;92.23
59329;BME280;45100;46.926;7.452;2023-05-03T01:49:36;95746.62;;;7.95;92.06
59329;BME280;45100;46.926;7.452;2023-05-03T01:52:08;95738.39;;;7.88;91.99
59329;BME280;45100;46.926;7.452;2023-05-03T01:54:37;95739.95;;;7.84;92.16
59329;BME280;45100;46.926;7.452;2023-05-03T01:57:08;95751.72;;;7.79;92.62
59329;BME280;45100;46.926;7.452;2023-05-03T01:59:39;95754.53;;;7.78;92.90
59329;BME280;45100;46.926;7.452;2023-05-03T02:02:10;95758.16;;;7.79;93.08
59329;BME280;45100;46.926;7.452;2023-05-03T02:04:40;95759.09;;;7.80;92.69
59329;BME280;45100;46.926;7.452;2023-05-03T02:07:11;95760.35;;;7.80;92.97
59329;BME280;45100;46.926;7.452;2023-05-03T02:09:42;95756.00;;;7.79;92.70
59329;BME280;45100;46.926;7.452;2023-05-03T02:12:13;95758.72;;;7.78;92.69
59329;BME280;45100;46.926;7.452;2023-05-03T02:14:43;95758.53;;;7.76;92.61
59329;BME280;45100;46.926;7.452;2023-05-03T02:17:18;95761.25;;;7.74;92.90
59329;BME280;45100;46.926;7.452;2023-05-03T02:19:44;95753.98;;;7.74;93.34
59329;BME280;45100;46.926;7.452;2023-05-03T02:22:15;95760.02;;;7.73;93.52
59329;BME280;45100;46.926;7.452;2023-05-03T02:27:20;95756.69;;;7.74;93.21
59329;BME280;45100;46.926;7.452;2023-05-03T02:29:51;95756.33;;;7.71;93.18
59329;BME280;45100;46.926;7.452;2023-05-03T02:32:21;95756.58;;;7.67;93.16
59329;BME280;45100;46.926;7.452;2023-05-03T02:37:24;95746.20;;;7.60;93.65
59329;BME280;45100;46.926;7.452;2023-05-03T02:39:55;95743.38;;;7.56;93.60
59329;BME280;45100;46.926;7.452;2023-05-03T02:42:26;95741.02;;;7.53;93.60
59329;BME280;45100;46.926;7.452;2023-05-03T02:44:57;95734.61;;;7.49;93.61
59329;BME280;45100;46.926;7.452;2023-05-03T02:47:28;95729.56;;;7.44;93.70
59329;BME280;45100;46.926;7.452;2023-05-03T02:49:58;95732.48;;;7.37;93.45
59329;BME280;45100;46.926;7.452;2023-05-03T02:55:03;95733.08;;;7.27;94.27
59329;BME280;45100;46.926;7.452;2023-05-03T02:57:33;95738.34;;;7.24;94.19
59329;BME280;45100;46.926;7.452;2023-05-03T03:00:06;95731.94;;;7.23;94.56
59329;BME280;45100;46.926;7.452;2023-05-03T03:05:08;95731.44;;;7.19;94.28
59329;BME280;45100;46.926;7.452;2023-05-03T03:07:37;95726.62;;;7.14;94.28
59329;BME280;45100;46.926;7.452;2023-05-03T03:10:08;95720.06;;;7.11;94.59
59329;BME280;45100;46.926;7.452;2023-05-03T03:12:38;95719.19;;;7.11;94.75
59329;BME280;45100;46.926;7.452;2023-05-03T03:15:09;95713.52;;;7.12;94.50
59329;BME280;45100;46.926;7.452;2023-05-03T03:17:39;95714.59;;;7.11;93.92
59329;BME280;45100;46.926;7.452;2023-05-03T03:20:11;95708.09;;;7.07;93.81
59329;BME280;45100;46.926;7.452;2023-05-03T03:22:44;95702.98;;;7.02;93.77
59329;BME280;45100;46.926;7.452;2023-05-03T03:25:11;95705.48;;;6.96;93.84
59329;BME280;45100;46.926;7.452;2023-05-03T03:27:42;95706.04;;;6.90;94.12
59329;BME280;45100;46.926;7.452;2023-05-03T03:30:13;95707.95;;;6.84;94.37
59329;BME280;45100;46.926;7.452;2023-05-03T03:32:43;95704.13;;;6.79;94.84
59329;BME280;45100;46.926;7.452;2023-05-03T03:35:14;95706.97;;;6.75;94.93
59329;BME280;45100;46.926;7.452;2023-05-03T03:37:45;95707.29;;;6.70;95.29
59329;BME280;45100;46.926;7.452;2023-05-03T03:40:16;95705.75;;;6.68;95.80
59329;BME280;45100;46.926;7.452;2023-05-03T03:42:46;95703.00;;;6.69;96.26
59329;BME280;45100;46.926;7.452;2023-05-03T03:45:17;95702.75;;;6.67;95.95
59329;BME280;45100;46.926;7.452;2023-05-03T03:47:48;95707.05;;;6.66;96.33
59329;BME280;45100;46.926;7.452;2023-05-03T03:50:19;95718.08;;;6.65;96.26
59329;BME280;45100;46.926;7.452;2023-05-03T03:52:50;95724.55;;;6.64;95.98
59329;BME280;45100;46.926;7.452;2023-05-03T03:55:20;95727.55;;;6.63;95.85
59329;BME280;45100;46.926;7.452;2023-05-03T03:57:50;95733.22;;;6.62;95.96
59329;BME280;45100;46.926;7.452;2023-05-03T04:00:21;95737.80;;;6.61;95.87
59329;BME280;45100;46.926;7.452;2023-05-03T04:02:51;95738.04;;;6.60;95.87
59329;BME280;45100;46.926;7.452;2023-05-03T04:05:22;95737.30;;;6.60;95.89
59329;BME280;45100;46.926;7.452;2023-05-03T04:07:53;95735.12;;;6.58;95.83
59329;BME280;45100;46.926;7.452;2023-05-03T04:10:23;95736.61;;;6.59;96.04
59329;BME280;45100;46.926;7.452;2023-05-03T04:12:55;95739.73;;;6.61;96.35
59329;BME280;45100;46.926;7.452;2023-05-03T04:15:25;95740.67;;;6.67;96.60
59329;BME280;45100;46.926;7.452;2023-05-03T04:17:55;95737.64;;;6.70;96.65
59329;BME280;45100;46.926;7.452;2023-05-03T04:20:26;95737.39;;;6.75;96.69
59329;BME280;45100;46.926;7.452;2023-05-03T04:22:57;95738.27;;;6.81;96.93
59329;BME280;45100;46.926;7.452;2023-05-03T04:25:27;95738.67;;;6.87;96.88
59329;BME280;45100;46.926;7.452;2023-05-03T04:30:33;95747.22;;;6.99;96.59
59329;BME280;45100;46.926;7.452;2023-05-03T04:33:04;95750.34;;;7.17;97.03
59329;BME280;45100;46.926;7.452;2023-05-03T04:35:34;95751.70;;;7.47;96.60
59329;BME280;45100;46.926;7.452;2023-05-03T04:38:05;95747.96;;;7.86;95.23
59329;BME280;45100;46.926;7.452;2023-05-03T04:40:35;95743.77;;;8.30;92.58
59329;BME280;45100;46.926;7.452;2023-05-03T04:43:06;95744.94;;;8.76;90.00
59329;BME280;45100;46.926;7.452;2023-05-03T04:45:37;95742.16;;;9.22;87.46
59329;BME280;45100;46.926;7.452;2023-05-03T04:48:08;95738.59;;;9.64;84.10
59329;BME280;45100;46.926;7.452;2023-05-03T04:50:38;95748.69;;;10.06;82.06
59329;BME280;45100;46.926;7.452;2023-05-03T04:53:09;95752.45;;;10.44;79.45
59329;BME280;45100;46.926;7.452;2023-05-03T04:55:40;95753.40;;;10.76;77.39
59329;BME280;45100;46.926;7.452;2023-05-03T04:58:11;95756.97;;;11.04;76.32
59329;BME280;45100;46.926;7.452;2023-05-03T05:00:41;95762.19;;;11.33;74.49
59329;BME280;45100;46.926;7.452;2023-05-03T05:03:12;95765.37;;;11.58;72.78
59329;BME280;45100;46.926;7.452;2023-05-03T05:05:43;95765.48;;;11.69;71.75
59329;BME280;45100;46.926;7.452;2023-05-03T05:08:14;95773.41;;;11.60;71.70
59329;BME280;45100;46.926;7.452;2023-05-03T05:10:44;95775.89;;;11.39;72.34
59329;BME280;45100;46.926;7.452;2023-05-03T05:13:16;95775.47;;;11.17;72.99
59329;BME280;45100;46.926;7.452;2023-05-03T05:15:45;95779.70;;;10.91;73.54
59329;BME280;45100;46.926;7.452;2023-05-03T05:18:16;95775.84;;;10.66;74.69
59329;BME280;45100;46.926;7.452;2023-05-03T05:20:47;95779.41;;;10.43;75.78
59329;BME280;45100;46.926;7.452;2023-05-03T05:23:18;95779.09;;;10.25;76.87
59329;BME280;45100;46.926;7.452;2023-05-03T05:25:49;95779.44;;;10.10;77.31
59329;BME280;45100;46.926;7.452;2023-05-03T05:28:18;95781.38;;;9.94;78.13
59329;BME280;45100;46.926;7.452;2023-05-03T05:30:49;95778.62;;;9.79;78.90
59329;BME280;45100;46.926;7.452;2023-05-03T05:33:20;95784.61;;;9.63;79.86
59329;BME280;45100;46.926;7.452;2023-05-03T05:35:51;95787.66;;;9.52;80.51
59329;BME280;45100;46.926;7.452;2023-05-03T05:38:22;95784.83;;;9.46;81.22
59329;BME280;45100;46.926;7.452;2023-05-03T05:40:52;95780.72;;;9.42;81.75
59329;BME280;45100;46.926;7.452;2023-05-03T05:43:23;95780.60;;;9.38;81.70
59329;BME280;45100;46.926;7.452;2023-05-03T05:45:54;95780.91;;;9.35;82.22
59329;BME280;45100;46.926;7.452;2023-05-03T05:48:25;95779.06;;;9.33;82.15
59329;BME280;45100;46.926;7.452;2023-05-03T05:50:55;95781.21;;;9.30;82.72
59329;BME280;45100;46.926;7.452;2023-05-03T05:53:26;95775.30;;;9.29;83.09
59329;BME280;45100;46.926;7.452;2023-05-03T05:55:57;95776.55;;;9.32;83.48
59329;BME280;45100;46.926;7.452;2023-05-03T05:58:28;95776.67;;;9.33;83.66
59329;BME280;45100;46.926;7.452;2023-05-03T06:00:59;95779.67;;;9.31;83.76
59329;BME280;45100;46.926;7.452;2023-05-03T06:03:30;95777.69;;;9.28;84.15
59329;BME280;45100;46.926;7.452;2023-05-03T06:06:01;95778.37;;;9.29;84.37
59329;BME280;45100;46.926;7.452;2023-05-03T06:08:31;95777.58;;;9.32;84.50
59329;BME280;45100;46.926;7.452;2023-05-03T06:11:01;95776.11;;;9.36;84.54
59329;BME280;45100;46.926;7.452;2023-05-03T06:13:37;95780.52;;;9.42;84.31
59329;BME280;45100;46.926;7.452;2023-05-03T06:16:04;95777.58;;;9.47;84.10
59329;BME280;45100;46.926;7.452;2023-05-03T06:18:33;95774.92;;;9.52;84.19
59329;BME280;45100;46.926;7.452;2023-05-03T06:21:03;95775.14;;;9.59;84.34
59329;BME280;45100;46.926;7.452;2023-05-03T06:23:37;95775.91;;;9.65;83.46
59329;BME280;45100;46.926;7.452;2023-05-03T06:26:05;95776.46;;;9.69;82.94
59329;BME280;45100;46.926;7.452;2023-05-03T06:28:35;95775.05;;;9.71;82.65
59329;BME280;45100;46.926;7.452;2023-05-03T06:31:05;95769.53;;;9.73;82.73
59329;BME280;45100;46.926;7.452;2023-05-03T06:33:35;95769.03;;;9.77;82.73
59329;BME280;45100;46.926;7.452;2023-05-03T06:38:40;95764.75;;;9.83;82.85
59329;BME280;45100;46.926;7.452;2023-05-03T06:41:10;95760.28;;;9.89;82.60
59329;BME280;45100;46.926;7.452;2023-05-03T06:43:41;95755.09;;;9.94;82.56
59329;BME280;45100;46.926;7.452;2023-05-03T06:46:12;95752.58;;;9.99;82.51
59329;BME280;45100;46.926;7.452;2023-05-03T06:48:42;95753.11;;;10.04;82.43
59329;BME280;45100;46.926;7.452;2023-05-03T06:51:13;95750.95;;;10.12;82.66
59329;BME280;45100;46.926;7.452;2023-05-03T06:53:46;95749.70;;;10.20;82.73
59329;BME280;45100;46.926;7.452;2023-05-03T06:56:14;95752.39;;;10.29;82.59
59329;BME280;45100;46.926;7.452;2023-05-03T06:58:45;95749.38;;;10.35;81.94
59329;BME280;45100;46.926;7.452;2023-05-03T07:01:18;95743.05;;;10.39;81.93
59329;BME280;45100;46.926;7.452;2023-05-03T07:03:46;95746.77;;;10.45;81.96
59329;BME280;45100;46.926;7.452;2023-05-03T07:06:18;95741.56;;;10.53;82.16
59329;BME280;45100;46.926;7.452;2023-05-03T07:08:51;95739.45;;;10.61;81.88
59329;BME280;45100;46.926;7.452;2023-05-03T07:11:21;95729.36;;;10.70;81.53
59329;BME280;45100;46.926;7.452;2023-05-03T07:13:49;95727.27;;;10.83;81.60
59329;BME280;45100;46.926;7.452;2023-05-03T07:16:19;95723.55;;;10.96;81.16
59329;BME280;45100;46.926;7.452;2023-05-03T07:18:49;95725.69;;;11.07;79.17
59329;BME280;45100;46.926;7.452;2023-05-03T07:21:20;95728.34;;;11.16;78.84
59329;BME280;45100;46.926;7.452;2023-05-03T07:23:51;95725.86;;;11.23;78.23
59329;BME280;45100;46.926;7.452;2023-05-03T07:26:22;95719.94;;;11.23;78.14
59329;BME280;45100;46.926;7.452;2023-05-03T07:28:52;95707.85;;;11.22;79.48
59329;BME280;45100;46.926;7.452;2023-05-03T07:31:25;95707.22;;;11.27;79.83
59329;BME280;45100;46.926;7.452;2023-05-03T07:33:54;95706.25;;;11.33;79.81
59329;BME280;45100;46.926;7.452;2023-05-03T07:36:24;95699.70;;;11.42;77.79
59329;BME280;45100;46.926;7.452;2023-05-03T07:38:55;95691.97;;;11.50;76.83
59329;BME280;45100;46.926;7.452;2023-05-03T07:41:26;95684.42;;;11.57;76.34
59329;BME280;45100;46.926;7.452;2023-05-03T07:46:35;95679.62;;;11.74;75.26
59329;BME280;45100;46.926;7.452;2023-05-03T07:49:01;95678.73;;;11.82;75.74
59329;BME280;45100;46.926;7.452;2023-05-03T07:51:35;95678.42;;;11.94;75.75
59329;BME280;45100;46.926;7.452;2023-05-03T07:54:02;95671.52;;;12.08;75.41
59329;BME280;45100;46.926;7.452;2023-05-03T07:56:32;95671.55;;;12.20;74.98
59329;BME280;45100;46.926;7.452;2023-05-03T07:59:03;95664.56;;;12.34;74.92
59329;BME280;45100;46.926;7.452;2023-05-03T08:01:34;95664.47;;;12.47;74.10
59329;BME280;45100;46.926;7.452;2023-05-03T08:04:05;95661.27;;;12.57;73.90
59329;BME280;45100;46.926;7.452;2023-05-03T08:06:37;95661.38;;;12.66;72.74
59329;BME280;45100;46.926;7.452;2023-05-03T08:09:06;95660.59;;;12.71;72.42
59329;BME280;45100;46.926;7.452;2023-05-03T08:11:37;95656.11;;;12.73;71.85
59329;BME280;45100;46.926;7.452;2023-05-03T08:14:08;95653.83;;;12.71;71.89
59329;BME280;45100;46.926;7.452;2023-05-03T08:16:38;95656.97;;;12.74;71.88
59329;BME280;45100;46.926;7.452;2023-05-03T08:19:09;95654.49;;;12.82;72.88
59329;BME280;45100;46.926;7.452;2023-05-03T08:21:40;95652.23;;;12.99;74.13
59329;BME280;45100;46.926;7.452;2023-05-03T08:24:13;95653.25;;;13.19;73.16
59329;BME280;45100;46.926;7.452;2023-05-03T08:26:41;95651.47;;;13.37;71.88
59329;BME280;45100;46.926;7.452;2023-05-03T08:29:11;95647.64;;;13.53;72.11
59329;BME280;45100;46.926;7.452;2023-05-03T08:31:43;95642.05;;;13.68;71.01
59329;BME280;45100;46.926;7.452;2023-05-03T08:34:12;95641.78;;;13.81;69.96
59329;BME280;45100;46.926;7.452;2023-05-03T08:36:44;95642.11;;;13.89;69.33
59329;BME280;45100;46.926;7.452;2023-05-03T08:41:47;95634.12;;;13.96;68.04
59329;BME280;45100;46.926;7.452;2023-05-03T08:44:21;95634.11;;;14.00;68.51
59329;BME280;45100;46.926;7.452;2023-05-03T08:49:25;95626.49;;;14.25;67.57
59329;BME280;45100;46.926;7.452;2023-05-03T08:51:55;95634.36;;;14.37;65.92
59329;BME280;45100;46.926;7.452;2023-05-03T08:54:25;95621.41;;;14.39;65.87
59329;BME280;45100;46.926;7.452;2023-05-03T08:59:29;95625.00;;;14.23;65.81
59329;BME280;45100;46.926;7.452;2023-05-03T09:01:59;95622.38;;;14.11;65.84
59329;BME280;45100;46.926;7.452;2023-05-03T09:04:32;95624.80;;;13.95;66.03
59329;BME280;45100;46.926;7.452;2023-05-03T09:07:06;95629.64;;;13.80;67.02
59329;BME280;45100;46.926;7.452;2023-05-03T09:09:31;95628.09;;;13.67;67.38
59329;BME280;45100;46.926;7.452;2023-05-03T09:12:02;95627.77;;;13.62;66.91
59329;BME280;45100;46.926;7.452;2023-05-03T09:14:40;95628.56;;;13.61;67.28
59329;BME280;45100;46.926;7.452;2023-05-03T09:17:13;95629.69;;;13.66;67.31
59329;BME280;45100;46.926;7.452;2023-05-03T09:19:49;95630.89;;;13.80;67.12
59329;BME280;45100;46.926;7.452;2023-05-03T09:22:07;95627.88;;;13.95;66.07
59329;BME280;45100;46.926;7.452;2023-05-03T09:24:33;95635.12;;;14.08;64.94
59329;BME280;45100;46.926;7.452;2023-05-03T09:27:16;95639.55;;;14.19;64.75
59329;BME280;45100;46.926;7.452;2023-05-03T09:29:36;95644.77;;;14.29;63.73
59329;BME280;45100;46.926;7.452;2023-05-03T09:32:08;95645.40;;;14.39;64.50
59329;BME280;45100;46.926;7.452;2023-05-03T09:34:37;95643.27;;;14.51;63.28
59329;BME280;45100;46.926;7.452;2023-05-03T09:37:06;95651.06;;;14.61;61.72
59329;BME280;45100;46.926;7.452;2023-05-03T09:39:37;95645.38;;;14.70;62.36
59329;BME280;45100;46.926;7.452;2023-05-03T09:42:14;95648.34;;;14.78;60.89
59329;BME280;45100;46.926;7.452;2023-05-03T09:44:43;95650.44;;;14.84;61.60
59329;BME280;45100;46.926;7.452;2023-05-03T09:47:10;95651.40;;;14.94;60.16
59329;BME280;45100;46.926;7.452;2023-05-03T09:49:40;95653.48;;;14.99;60.70
59329;BME280;45100;46.926;7.452;2023-05-03T09:52:11;95654.70;;;15.01;60.39
59329;BME280;45100;46.926;7.452;2023-05-03T09:54:42;95652.20;;;15.01;59.67
59329;BME280;45100;46.926;7.452;2023-05-03T09:59:45;95654.58;;;15.09;59.26
59329;BME280;45100;46.926;7.452;2023-05-03T10:02:16;95651.00;;;15.17;58.54
59329;BME280;45100;46.926;7.452;2023-05-03T10:04:49;95645.28;;;15.26;59.09
59329;BME280;45100;46.926;7.452;2023-05-03T10:07:17;95643.02;;;15.46;59.20
59329;BME280;45100;46.926;7.452;2023-05-03T10:09:47;95644.13;;;15.67;58.26
59329;BME280;45100;46.926;7.452;2023-05-03T10:17:34;95649.94;;;16.01;55.32
59329;BME280;45100;46.926;7.452;2023-05-03T10:22:26;95649.87;;;15.86;55.96
59329;BME280;45100;46.926;7.452;2023-05-03T10:25:08;95653.62;;;15.90;57.05
59329;BME280;45100;46.926;7.452;2023-05-03T10:30:00;95646.34;;;16.25;56.23
59329;BME280;45100;46.926;7.452;2023-05-03T10:32:36;95646.81;;;16.43;55.12
59329;BME280;45100;46.926;7.452;2023-05-03T10:35:09;95644.20;;;16.59;54.55
59329;BME280;45100;46.926;7.452;2023-05-03T10:37:33;95644.20;;;16.71;54.63
59329;BME280;45100;46.926;7.452;2023-05-03T10:40:10;95648.17;;;16.79;53.23
59329;BME280;45100;46.926;7.452;2023-05-03T10:42:34;95647.51;;;16.78;52.52
59329;BME280;45100;46.926;7.452;2023-05-03T10:47:35;95639.23;;;16.56;53.25
59329;BME280;45100;46.926;7.452;2023-05-03T10:50:23;95653.98;;;16.53;53.46
59329;BME280;45100;46.926;7.452;2023-05-03T10:52:44;95648.09;;;16.55;53.02
59329;BME280;45100;46.926;7.452;2023-05-03T10:55:12;95654.41;;;16.63;52.65
59329;BME280;45100;46.926;7.452;2023-05-03T10:57:41;95638.07;;;16.67;52.71
59329;BME280;45100;46.926;7.452;2023-05-03T11:00:18;95638.62;;;16.66;53.46
59329;BME280;45100;46.926;7.452;2023-05-03T11:02:45;95638.45;;;16.72;53.33
59329;BME280;45100;46.926;7.452;2023-05-03T11:05:11;95643.20;;;16.84;52.90
59329;BME280;45100;46.926;7.452;2023-05-03T11:10:18;95636.81;;;16.80;52.01
59329;BME280;45100;46.926;7.452;2023-05-03T11:12:42;95644.56;;;16.68;51.31
59329;BME280;45100;46.926;7.452;2023-05-03T11:15:13;95644.64;;;16.58;52.77
59329;BME280;45100;46.926;7.452;2023-05-03T11:17:44;95647.33;;;16.55;52.72
59329;BME280;45100;46.926;7.452;2023-05-03T11:20:14;95642.49;;;16.56;52.84
59329;BME280;45100;46.926;7.452;2023-05-03T11:22:46;95646.48;;;16.64;53.44
59329;BME280;45100;46.926;7.452;2023-05-03T11:25:16;95648.66;;;16.70;53.45
59329;BME280;45100;46.926;7.452;2023-05-03T11:27:47;95636.34;;;16.77;53.48
59329;BME280;45100;46.926;7.452;2023-05-03T11:30:17;95635.09;;;16.81;53.02
59329;BME280;45100;46.926;7.452;2023-05-03T11:32:46;95628.67;;;16.83;53.42
59329;BME280;45100;46.926;7.452;2023-05-03T11:35:17;95639.17;;;16.88;53.10
59329;BME280;45100;46.926;7.452;2023-05-03T11:37:47;95640.99;;;16.91;52.94
59329;BME280;45100;46.926;7.452;2023-05-03T11:40:18;95627.29;;;16.93;52.13
59329;BME280;45100;46.926;7.452;2023-05-03T11:42:56;95633.45;;;16.96;52.44
59329;BME280;45100;46.926;7.452;2023-05-03T11:45:24;95624.47;;;17.02;52.37
59329;BME280;45100;46.926;7.452;2023-05-03T11:47:50;95628.73;;;17.13;51.92
59329;BME280;45100;46.926;7.452;2023-05-03T11:50:46;95631.52;;;17.18;51.50
59329;BME280;45100;46.926;7.452;2023-05-03T11:52:50;95619.30;;;17.17;51.52
59329;BME280;45100;46.926;7.452;2023-05-03T11:55:20;95622.41;;;17.17;52.21
59329;BME280;45100;46.926;7.452;2023-05-03T11:57:51;95626.04;;;17.21;52.55
59329;BME280;45100;46.926;7.452;2023-05-03T12:00:22;95618.42;;;17.31;51.47
59329;BME280;45100;46.926;7.452;2023-05-03T12:02:50;95621.05;;;17.42;51.26
59329;BME280;45100;46.926;7.452;2023-05-03T12:05:21;95609.01;;;17.51;51.68
59329;BME280;45100;46.926;7.452;2023-05-03T12:07:52;95613.01;;;17.58;50.17
59329;BME280;45100;46.926;7.452;2023-05-03T12:10:22;95604.08;;;17.64;50.39
59329;BME280;45100;46.926;7.452;2023-05-03T12:12:54;95615.48;;;17.70;50.11
59329;BME280;45100;46.926;7.452;2023-05-03T12:15:27;95606.44;;;17.70;50.13
59329;BME280;45100;46.926;7.452;2023-05-03T12:17:55;95608.21;;;17.67;50.33
59329;BME280;45100;46.926;7.452;2023-05-03T12:20:28;95604.65;;;17.72;50.54
59329;BME280;45100;46.926;7.452;2023-05-03T12:23:04;95606.35;;;17.79;50.03
59329;BME280;45100;46.926;7.452;2023-05-03T12:25:28;95591.31;;;17.77;49.87
59329;BME280;45100;46.926;7.452;2023-05-03T12:27:59;95600.35;;;17.76;50.34
59329;BME280;45100;46.926;7.452;2023-05-03T12:30:27;95597.41;;;17.78;49.95
59329;BME280;45100;46.926;7.452;2023-05-03T12:32:57;95596.20;;;17.82;50.50
59329;BME280;45100;46.926;7.452;2023-05-03T12:35:28;95598.65;;;17.88;49.76
59329;BME280;45100;46.926;7.452;2023-05-03T12:37:58;95588.09;;;17.93;48.67
59329;BME280;45100;46.926;7.452;2023-05-03T12:40:29;95583.80;;;17.98;48.83
59329;BME280;45100;46.926;7.452;2023-05-03T12:43:02;95575.69;;;18.04;48.35
59329;BME280;45100;46.926;7.452;2023-05-03T12:45:31;95575.49;;;18.08;49.07
59329;BME280;45100;46.926;7.452;2023-05-03T12:48:02;95575.71;;;18.13;47.44
59329;BME280;45100;46.926;7.452;2023-05-03T12:50:32;95578.73;;;18.15;48.24
59329;BME280;45100;46.926;7.452;2023-05-03T12:53:02;95577.16;;;18.17;48.57
59329;BME280;45100;46.926;7.452;2023-05-03T12:55:34;95563.64;;;18.18;48.37
59329;BME280;45100;46.926;7.452;2023-05-03T12:58:05;95561.61;;;18.22;49.18
59329;BME280;45100;46.926;7.452;2023-05-03T13:00:34;95568.19;;;18.35;48.40
59329;BME280;45100;46.926;7.452;2023-05-03T13:03:05;95569.00;;;18.40;47.40
59329;BME280;45100;46.926;7.452;2023-05-03T13:05:36;95569.44;;;18.35;48.32
59329;BME280;45100;46.926;7.452;2023-05-03T13:08:07;95558.52;;;18.28;47.52
59329;BME280;45100;46.926;7.452;2023-05-03T13:10:37;95556.88;;;18.22;48.42
59329;BME280;45100;46.926;7.452;2023-05-03T13:13:07;95544.62;;;18.27;48.77
59329;BME280;45100;46.926;7.452;2023-05-03T13:15:38;95540.70;;;18.37;47.91
59329;BME280;45100;46.926;7.452;2023-05-03T13:20:41;95546.33;;;18.59;46.87
59329;BME280;45100;46.926;7.452;2023-05-03T13:23:12;95557.23;;;18.55;47.20
59329;BME280;45100;46.926;7.452;2023-05-03T13:25:42;95544.65;;;18.48;47.84
59329;BME280;45100;46.926;7.452;2023-05-03T13:28:12;95548.20;;;18.46;48.12
59329;BME280;45100;46.926;7.452;2023-05-03T13:30:43;95541.41;;;18.46;48.24
59329;BME280;45100;46.926;7.452;2023-05-03T13:33:14;95541.58;;;18.46;47.70
59329;BME280;45100;46.926;7.452;2023-05-03T13:35:45;95541.98;;;18.46;47.51
59329;BME280;45100;46.926;7.452;2023-05-03T13:38:16;95538.00;;;18.48;48.29
59329;BME280;45100;46.926;7.452;2023-05-03T13:40:45;95531.83;;;18.55;48.28
59329;BME280;45100;46.926;7.452;2023-05-03T13:45:48;95540.55;;;18.65;47.09
59329;BME280;45100;46.926;7.452;2023-05-03T13:48:19;95541.44;;;18.57;46.94
59329;BME280;45100;46.926;7.452;2023-05-03T13:50:50;95524.62;;;18.49;47.31
59329;BME280;45100;46.926;7.452;2023-05-03T13:53:21;95519.88;;;18.46;47.92
59329;BME280;45100;46.926;7.452;2023-05-03T13:55:51;95525.56;;;18.51;46.83
59329;BME280;45100;46.926;7.452;2023-05-03T13:58:22;95522.12;;;18.54;47.22
59329;BME280;45100;46.926;7.452;2023-05-03T14:00:53;95515.73;;;18.57;47.41
59329;BME280;45100;46.926;7.452;2023-05-03T14:03:23;95509.03;;;18.57;46.93
59329;BME280;45100;46.926;7.452;2023-05-03T14:05:53;95510.02;;;18.60;47.92
59329;BME280;45100;46.926;7.452;2023-05-03T14:08:25;95512.67;;;18.70;47.73
59329;BME280;45100;46.926;7.452;2023-05-03T14:10:53;95509.66;;;18.82;47.33
59329;BME280;45100;46.926;7.452;2023-05-03T14:13:25;95513.79;;;18.88;46.96
59329;BME280;45100;46.926;7.452;2023-05-03T14:15:55;95506.30;;;18.86;48.05
59329;BME280;45100;46.926;7.452;2023-05-03T14:18:26;95492.78;;;18.85;48.34